KAID/AID METAR and TAF weather

Enter ICAO airport designator
Station Type Date Time Source
KAID METAR 2018/10/21 05:35 UTC NOAA

KAID 210535Z AUTO 28004KT 10SM OVC018 02/00 A3027 RMK AO2 T00170000


Station Type Date Time Source
KAID Decoded METAR 2018/10/21 05:35 UTC NOAA

Anderson Municipal, IN, United States (KAID) 40-07N 085-37W
Oct 21, 2018 - 01:35 AM EDT / 2018.10.21 0535 UTC
Wind: from the W (280 degrees) at 5 MPH (4 KT):0
Visibility: 10 mile(s):0
Sky conditions: overcast
Temperature: 35.1 F (1.7 C)
Dew Point: 32.0 F (0.0 C)
Relative Humidity: 88%
Pressure (altimeter): 30.27 in. Hg (1025 hPa)
ob: KAID 210535Z AUTO 28004KT 10SM OVC018 02/00 A3027 RMK AO2 T00170000
cycle: 5

Station Type Date Time Source
KAID TAF UTC NOAA

Error!


Example: see airport list